createdAt,value
2022-11-02T00:00:54.280Z,14.28
2022-11-02T00:03:22.074Z,14.09
2022-11-02T00:05:49.849Z,13.92
2022-11-02T00:08:17.575Z,13.99
2022-11-02T00:10:45.372Z,14.25
2022-11-02T00:13:20.608Z,14.18
2022-11-02T00:15:49.789Z,14.11
2022-11-02T00:18:17.643Z,14.12
2022-11-02T00:20:45.434Z,14.27
2022-11-02T00:23:13.993Z,14.11
2022-11-02T00:25:43.345Z,14.29
2022-11-02T00:28:11.451Z,14.23
2022-11-02T00:30:39.305Z,14.29
2022-11-02T00:33:08.391Z,14.49
2022-11-02T00:35:36.555Z,14.47
2022-11-02T00:38:05.175Z,14.38
2022-11-02T00:40:33.206Z,14.29
2022-11-02T00:43:01.021Z,14.29
2022-11-02T00:45:28.779Z,14.60
2022-11-02T00:47:56.514Z,14.42
2022-11-02T00:50:26.175Z,14.36
2022-11-02T00:52:53.944Z,14.25
2022-11-02T00:55:21.947Z,14.13
2022-11-02T00:57:50.080Z,14.13
2022-11-02T01:00:18.444Z,14.25
2022-11-02T01:02:46.309Z,14.32
2022-11-02T01:05:14.198Z,14.25
2022-11-02T01:07:43.393Z,14.16
2022-11-02T01:10:11.923Z,14.20
2022-11-02T01:12:41.237Z,14.23
2022-11-02T01:15:12.080Z,14.22
2022-11-02T01:17:40.011Z,14.36
2022-11-02T01:20:09.146Z,14.31
2022-11-02T01:22:36.913Z,14.26
2022-11-02T01:25:06.423Z,14.33
2022-11-02T01:27:34.216Z,14.32
2022-11-02T01:30:01.944Z,14.39
2022-11-02T01:32:30.508Z,14.32
2022-11-02T01:34:58.374Z,14.35
2022-11-02T01:37:26.150Z,14.38
2022-11-02T01:39:53.883Z,14.17
2022-11-02T01:42:25.214Z,14.05
2022-11-02T01:44:53.042Z,14.13
2022-11-02T01:47:24.753Z,14.06
2022-11-02T01:49:54.978Z,14.13
2022-11-02T01:52:27.125Z,14.01
2022-11-02T01:54:57.421Z,13.95
2022-11-02T01:57:28.611Z,13.99
2022-11-02T01:59:58.141Z,14.02
2022-11-02T02:02:27.388Z,13.92
2022-11-02T02:04:59.298Z,14.02
2022-11-02T02:07:27.524Z,14.08
2022-11-02T02:09:55.716Z,14.09
2022-11-02T02:12:23.730Z,14.16
2022-11-02T02:14:53.180Z,14.14
2022-11-02T02:17:28.188Z,14.22
2022-11-02T02:20:01.612Z,14.25
2022-11-02T02:23:12.405Z,14.36
2022-11-02T02:25:58.531Z,14.51
2022-11-02T02:28:32.133Z,14.35
2022-11-02T02:31:02.559Z,14.40
2022-11-02T02:33:34.011Z,14.51
2022-11-02T02:36:05.540Z,14.31
2022-11-02T02:38:36.384Z,14.47
2022-11-02T02:41:10.518Z,14.26
2022-11-02T02:43:41.792Z,14.34
2022-11-02T02:46:11.179Z,14.26
2022-11-02T02:48:41.004Z,14.22
2022-11-02T02:51:11.038Z,14.14
2022-11-02T02:53:41.774Z,14.06
2022-11-02T02:56:11.687Z,14.18
2022-11-02T02:58:49.923Z,14.09
2022-11-02T03:01:18.401Z,14.07
2022-11-02T03:03:47.491Z,14.05
2022-11-02T03:06:18.946Z,13.90
2022-11-02T03:08:59.764Z,13.85
2022-11-02T03:11:28.491Z,14.07
2022-11-02T03:14:07.860Z,14.07
2022-11-02T03:16:47.748Z,14.00
2022-11-02T03:19:22.237Z,13.88
2022-11-02T03:21:56.658Z,13.96
2022-11-02T03:24:28.646Z,14.00
2022-11-02T03:27:06.273Z,13.87
2022-11-02T03:29:40.365Z,13.87
2022-11-02T03:32:10.454Z,14.01
2022-11-02T03:34:40.468Z,13.97
2022-11-02T03:37:16.113Z,14.08
2022-11-02T03:39:47.425Z,13.95
2022-11-02T03:42:18.511Z,13.88
2022-11-02T03:44:54.955Z,13.87
2022-11-02T03:47:23.565Z,13.94
2022-11-02T03:49:52.503Z,14.02
2022-11-02T03:52:24.088Z,13.87
2022-11-02T03:54:58.013Z,14.01
2022-11-02T03:57:29.640Z,13.87
2022-11-02T04:00:09.821Z,13.90
2022-11-02T04:02:43.317Z,13.82
2022-11-02T04:05:11.851Z,13.95
2022-11-02T04:07:59.976Z,13.89
2022-11-02T04:10:28.891Z,14.04
2022-11-02T04:13:28.592Z,13.80
2022-11-02T04:15:58.631Z,13.87
2022-11-02T04:18:43.918Z,13.91
2022-11-02T04:21:11.839Z,13.79
2022-11-02T04:23:57.306Z,13.79
2022-11-02T04:26:25.178Z,13.77
2022-11-02T04:28:53.092Z,13.60
2022-11-02T04:31:22.536Z,13.64
2022-11-02T04:33:49.421Z,13.62
2022-11-02T04:36:19.111Z,13.70
2022-11-02T04:38:51.504Z,13.75
2022-11-02T04:41:42.705Z,13.63
2022-11-02T04:44:30.905Z,13.57
2022-11-02T04:47:11.010Z,13.44
2022-11-02T04:49:38.855Z,13.65
2022-11-02T04:52:10.915Z,13.48
2022-11-02T04:54:44.081Z,13.44
2022-11-02T04:57:11.976Z,13.38
2022-11-02T04:59:39.829Z,13.46
2022-11-02T05:02:08.903Z,13.53
2022-11-02T05:04:38.388Z,13.44
2022-11-02T05:07:08.558Z,13.68
2022-11-02T05:09:37.687Z,13.62
2022-11-02T05:12:06.750Z,13.59
2022-11-02T05:14:35.236Z,13.49
2022-11-02T05:17:03.608Z,13.48
2022-11-02T05:19:32.254Z,13.51
2022-11-02T05:22:03.001Z,13.52
2022-11-02T05:24:31.548Z,13.66
2022-11-02T05:27:00.326Z,13.90
2022-11-02T05:29:28.324Z,13.73
2022-11-02T05:31:56.054Z,13.73
2022-11-02T05:34:24.155Z,13.67
2022-11-02T05:36:52.012Z,13.51
2022-11-02T05:39:21.095Z,13.58
2022-11-02T05:41:48.877Z,13.58
2022-11-02T05:44:16.730Z,13.61
2022-11-02T05:46:45.261Z,13.67
2022-11-02T05:49:13.200Z,13.81
2022-11-02T05:51:40.914Z,13.91
2022-11-02T05:54:08.632Z,13.79
2022-11-02T05:56:37.744Z,13.87
2022-11-02T05:59:05.669Z,13.75
2022-11-02T06:01:33.503Z,13.63
2022-11-02T06:04:01.322Z,13.63
2022-11-02T06:06:29.072Z,13.73
2022-11-02T06:08:56.852Z,13.76
2022-11-02T06:11:24.901Z,13.72
2022-11-02T06:13:54.022Z,13.46
2022-11-02T06:16:23.452Z,13.44
2022-11-02T06:18:51.935Z,13.38
2022-11-02T06:21:19.720Z,13.43
2022-11-02T06:23:48.471Z,13.62
2022-11-02T06:26:16.318Z,13.59
2022-11-02T06:28:44.053Z,13.53
2022-11-02T06:31:13.761Z,13.58
2022-11-02T06:33:42.076Z,13.54
2022-11-02T06:36:10.447Z,13.89
2022-11-02T06:38:39.448Z,13.71
2022-11-02T06:41:07.456Z,13.67
2022-11-02T06:43:38.510Z,13.73
2022-11-02T06:46:06.865Z,13.56
2022-11-02T06:48:36.436Z,13.56
2022-11-02T06:51:04.998Z,13.60
2022-11-02T06:53:32.846Z,13.61
2022-11-02T06:56:01.335Z,13.80
2022-11-02T06:58:29.299Z,14.00
2022-11-02T07:01:01.473Z,14.11
2022-11-02T07:03:29.671Z,14.14
2022-11-02T07:05:58.947Z,14.06
2022-11-02T07:08:27.267Z,14.11
2022-11-02T07:10:55.664Z,14.03
2022-11-02T07:13:23.512Z,14.06
2022-11-02T07:15:53.005Z,14.28
2022-11-02T07:18:20.809Z,14.31
2022-11-02T07:20:48.543Z,14.14
2022-11-02T07:23:17.756Z,14.37
2022-11-02T07:25:45.541Z,14.14
2022-11-02T07:28:13.324Z,14.00
2022-11-02T07:30:41.102Z,14.04
2022-11-02T07:33:09.036Z,14.22
2022-11-02T07:35:36.805Z,14.15
2022-11-02T07:38:06.371Z,14.26
2022-11-02T07:40:36.960Z,14.26
2022-11-02T07:43:05.417Z,14.38
2022-11-02T07:45:40.511Z,14.34
2022-11-02T07:48:08.618Z,14.27
2022-11-02T07:50:36.389Z,14.26
2022-11-02T07:53:04.488Z,14.31
2022-11-02T07:55:33.237Z,14.34
2022-11-02T07:58:04.921Z,14.31
2022-11-02T08:00:34.196Z,14.26
2022-11-02T08:03:03.837Z,14.15
2022-11-02T08:05:34.106Z,14.23
2022-11-02T08:08:03.182Z,14.42
2022-11-02T08:10:35.485Z,14.34
2022-11-02T08:13:08.675Z,14.42
2022-11-02T08:15:36.430Z,14.54
2022-11-02T08:18:05.974Z,14.43
2022-11-02T08:20:35.898Z,14.62
2022-11-02T08:23:04.024Z,14.52
2022-11-02T08:25:32.140Z,14.34
2022-11-02T08:28:00.716Z,14.48
2022-11-02T08:30:31.155Z,14.38
2022-11-02T08:33:03.646Z,14.26
2022-11-02T08:35:31.412Z,14.50
2022-11-02T08:37:59.931Z,14.55
2022-11-02T08:40:28.519Z,14.63
2022-11-02T08:42:59.910Z,14.56
2022-11-02T08:45:35.032Z,14.77
2022-11-02T08:48:11.331Z,14.85
2022-11-02T08:50:39.285Z,14.76
2022-11-02T08:53:07.372Z,15.11
2022-11-02T08:55:35.316Z,15.05
2022-11-02T08:58:03.493Z,15.21
2022-11-02T09:00:34.442Z,15.48
2022-11-02T09:03:03.569Z,15.72
2022-11-02T09:05:32.607Z,16.07
2022-11-02T09:08:02.281Z,15.79
2022-11-02T09:10:31.720Z,15.55
2022-11-02T09:13:00.461Z,15.60
2022-11-02T09:15:28.688Z,15.59
2022-11-02T09:17:57.901Z,15.80
2022-11-02T09:20:25.683Z,15.80
2022-11-02T09:22:53.921Z,16.07
2022-11-02T09:25:21.731Z,15.95
2022-11-02T09:27:55.643Z,16.02
2022-11-02T09:30:24.026Z,15.61
2022-11-02T09:32:56.928Z,15.67
2022-11-02T09:35:25.319Z,15.86
2022-11-02T09:37:53.022Z,15.99
2022-11-02T09:40:23.041Z,15.94
2022-11-02T09:43:00.213Z,16.01
2022-11-02T09:45:28.698Z,15.91
2022-11-02T09:48:16.815Z,15.64
2022-11-02T09:50:50.959Z,16.13
2022-11-02T09:53:21.372Z,16.33
2022-11-02T09:55:53.138Z,16.61
2022-11-02T09:58:22.743Z,16.94
2022-11-02T10:00:55.818Z,16.92
2022-11-02T10:03:35.239Z,16.76
2022-11-02T10:06:08.248Z,16.42
2022-11-02T10:08:40.118Z,16.23
2022-11-02T10:11:16.489Z,15.66
2022-11-02T10:13:52.538Z,15.82
2022-11-02T10:16:26.132Z,15.89
2022-11-02T10:18:56.141Z,15.82
2022-11-02T10:21:27.674Z,15.95
2022-11-02T10:23:56.721Z,15.65
2022-11-02T10:26:26.011Z,15.94
2022-11-02T10:28:59.359Z,16.39
2022-11-02T10:31:30.061Z,16.38
2022-11-02T10:34:02.530Z,17.28
2022-11-02T10:36:43.444Z,16.91
2022-11-02T10:39:21.514Z,16.56
2022-11-02T10:42:21.648Z,17.18
2022-11-02T10:45:02.422Z,17.30
2022-11-02T10:47:31.919Z,18.06
2022-11-02T10:50:26.424Z,17.33
2022-11-02T10:52:54.210Z,18.29
2022-11-02T10:55:27.391Z,18.39
2022-11-02T10:57:56.540Z,18.97
2022-11-02T11:00:26.535Z,19.59
2022-11-02T11:03:05.369Z,19.59
2022-11-02T11:05:35.141Z,20.27
2022-11-02T11:08:03.839Z,19.32
2022-11-02T11:10:38.025Z,18.80
2022-11-02T11:13:07.806Z,19.38
2022-11-02T11:15:51.450Z,20.14
2022-11-02T11:21:10.009Z,20.90
2022-11-02T11:23:37.787Z,21.68
2022-11-02T11:26:09.527Z,21.76
2022-11-02T11:28:40.758Z,22.11
2022-11-02T11:31:13.529Z,23.88
2022-11-02T11:33:46.505Z,23.71
2022-11-02T11:38:55.827Z,23.34
2022-11-02T11:41:24.410Z,21.21
2022-11-02T11:43:53.384Z,21.55
2022-11-02T11:46:21.174Z,21.48
2022-11-02T11:48:51.011Z,22.13
2022-11-02T11:51:32.184Z,20.90
2022-11-02T11:54:14.362Z,20.76
2022-11-02T11:56:42.156Z,22.38
2022-11-02T11:59:20.948Z,20.72
2022-11-02T12:01:48.844Z,20.15
2022-11-02T12:04:28.364Z,20.94
2022-11-02T12:07:10.404Z,20.64
2022-11-02T12:09:42.257Z,21.77
2022-11-02T12:12:16.719Z,22.72
2022-11-02T12:14:53.024Z,24.07
2022-11-02T12:17:42.664Z,21.13
2022-11-02T12:20:20.672Z,21.90
2022-11-02T12:22:55.267Z,20.62
2022-11-02T12:25:35.301Z,21.05
2022-11-02T12:28:14.285Z,20.47
2022-11-02T12:30:51.330Z,21.26
2022-11-02T12:33:29.971Z,22.73
2022-11-02T12:36:05.220Z,21.93
2022-11-02T12:38:59.976Z,22.77
2022-11-02T12:41:53.327Z,23.87
2022-11-02T12:44:37.620Z,23.03
2022-11-02T12:47:09.957Z,21.46
2022-11-02T12:49:42.716Z,20.84
2022-11-02T12:52:20.500Z,20.58
2022-11-02T12:54:51.603Z,20.99
2022-11-02T12:57:21.608Z,20.05
2022-11-02T12:59:51.131Z,19.24
2022-11-02T13:02:21.927Z,18.82
2022-11-02T13:04:52.556Z,18.77
2022-11-02T13:07:26.013Z,18.11
2022-11-02T13:10:00.138Z,18.74
2022-11-02T13:12:28.628Z,18.03
2022-11-02T13:14:57.823Z,17.85
2022-11-02T13:17:29.662Z,16.73
2022-11-02T13:19:59.862Z,17.01
2022-11-02T13:22:32.842Z,17.16
2022-11-02T13:25:08.477Z,18.19
2022-11-02T13:27:40.224Z,18.01
2022-11-02T13:30:15.694Z,18.73
2022-11-02T13:32:45.734Z,18.79
2022-11-02T13:35:20.733Z,18.63
2022-11-02T13:37:52.457Z,19.23
2022-11-02T13:40:24.997Z,21.33
2022-11-02T13:43:25.848Z,19.22
2022-11-02T13:46:07.648Z,19.42
2022-11-02T13:48:51.532Z,20.35
2022-11-02T13:51:26.008Z,22.97
2022-11-02T13:53:56.193Z,21.96
2022-11-02T13:56:28.420Z,21.30
2022-11-02T13:58:59.396Z,22.96
2022-11-02T14:01:30.932Z,23.83
2022-11-02T14:04:02.823Z,23.73
2022-11-02T14:06:32.193Z,22.65
2022-11-02T14:09:02.218Z,21.44
2022-11-02T14:11:38.028Z,22.47
2022-11-02T14:14:17.676Z,22.74
2022-11-02T14:16:47.552Z,23.00
2022-11-02T14:19:23.141Z,22.04
2022-11-02T14:22:13.474Z,21.93
2022-11-02T14:25:08.716Z,23.50
2022-11-02T14:27:37.831Z,23.32
2022-11-02T14:30:06.409Z,22.90
2022-11-02T14:32:45.507Z,23.39
2022-11-02T14:35:26.465Z,23.84
2022-11-02T14:38:05.833Z,23.61
2022-11-02T14:40:41.861Z,24.48
2022-11-02T14:43:30.248Z,22.31
2022-11-02T14:46:09.362Z,21.73
2022-11-02T14:48:47.619Z,21.19
2022-11-02T14:51:19.371Z,21.28
2022-11-02T14:53:47.897Z,21.24
2022-11-02T14:56:15.735Z,20.90
2022-11-02T14:58:51.692Z,20.28
2022-11-02T15:01:19.847Z,19.40
2022-11-02T15:03:48.371Z,19.02
2022-11-02T15:06:19.785Z,18.85
2022-11-02T15:08:53.112Z,18.65
2022-11-02T15:11:46.999Z,18.49
2022-11-02T15:14:53.390Z,18.26
2022-11-02T15:17:52.923Z,18.10
2022-11-02T15:20:30.232Z,18.00
2022-11-02T15:23:04.198Z,17.89
2022-11-02T15:25:37.225Z,18.08
2022-11-02T15:28:07.985Z,17.82
2022-11-02T15:30:44.585Z,17.41
2022-11-02T15:33:20.313Z,17.18
2022-11-02T15:35:49.251Z,17.00
2022-11-02T15:38:19.310Z,16.92
2022-11-02T15:40:52.774Z,16.88
2022-11-02T15:43:48.549Z,16.89
2022-11-02T15:46:27.762Z,16.80
2022-11-02T15:49:01.045Z,16.96
2022-11-02T15:51:33.656Z,16.91
2022-11-02T15:54:28.413Z,16.83
2022-11-02T15:57:04.175Z,16.77
2022-11-02T15:59:56.882Z,16.64
2022-11-02T16:02:28.206Z,16.47
2022-11-02T16:04:58.066Z,16.39
2022-11-02T16:07:33.484Z,16.29
2022-11-02T16:10:23.356Z,16.10
2022-11-02T16:13:01.671Z,16.27
2022-11-02T16:15:30.182Z,15.97
2022-11-02T16:17:59.617Z,15.88
2022-11-02T16:20:29.043Z,15.85
2022-11-02T16:22:58.796Z,15.81
2022-11-02T16:25:38.552Z,15.79
2022-11-02T16:28:16.581Z,15.83
2022-11-02T16:30:46.027Z,15.75
2022-11-02T16:33:15.170Z,15.70
2022-11-02T16:35:43.353Z,15.78
2022-11-02T16:38:11.429Z,15.61
2022-11-02T16:40:39.227Z,15.53
2022-11-02T16:43:07.016Z,15.44
2022-11-02T16:45:42.059Z,15.21
2022-11-02T16:48:22.751Z,14.98
2022-11-02T16:51:14.754Z,15.12
2022-11-02T16:53:43.887Z,15.08
2022-11-02T16:56:27.621Z,15.06
2022-11-02T16:59:01.076Z,15.05
2022-11-02T17:01:31.348Z,14.90
2022-11-02T17:04:03.297Z,14.69
2022-11-02T17:06:40.885Z,14.83
2022-11-02T17:09:22.316Z,14.61
2022-11-02T17:11:50.514Z,14.43
2022-11-02T17:14:20.038Z,14.40
2022-11-02T17:17:06.002Z,14.30
2022-11-02T17:19:48.213Z,14.14
2022-11-02T17:22:24.059Z,13.99
2022-11-02T17:25:04.992Z,14.07
2022-11-02T17:27:39.148Z,14.05
2022-11-02T17:30:44.578Z,14.15
2022-11-02T17:33:27.660Z,14.19
2022-11-02T17:35:58.203Z,14.18
2022-11-02T17:38:27.710Z,14.00
2022-11-02T17:40:55.930Z,14.00
2022-11-02T17:43:23.698Z,13.96
2022-11-02T17:45:56.329Z,14.06
2022-11-02T17:48:24.572Z,14.01
2022-11-02T17:50:54.209Z,14.02
2022-11-02T17:53:24.007Z,14.09
2022-11-02T17:55:52.014Z,13.69
2022-11-02T17:58:19.894Z,13.91
2022-11-02T18:00:47.793Z,13.69
2022-11-02T18:03:19.027Z,13.73
2022-11-02T18:05:50.065Z,13.86
2022-11-02T18:08:19.568Z,13.73
2022-11-02T18:10:51.132Z,13.87
2022-11-02T18:13:20.192Z,13.62
2022-11-02T18:15:48.135Z,13.61
2022-11-02T18:18:16.073Z,13.60
2022-11-02T18:20:43.789Z,13.63
2022-11-02T18:23:16.019Z,13.62
2022-11-02T18:25:43.950Z,13.54
2022-11-02T18:28:13.891Z,13.52
2022-11-02T18:30:44.156Z,13.50
2022-11-02T18:33:13.748Z,13.53
2022-11-02T18:35:42.610Z,13.56
2022-11-02T18:38:10.399Z,13.63
2022-11-02T18:40:38.316Z,13.65
2022-11-02T18:43:06.437Z,13.49
2022-11-02T18:45:35.848Z,13.47
2022-11-02T18:48:03.963Z,13.48
2022-11-02T18:50:32.105Z,13.59
2022-11-02T18:52:59.818Z,13.39
2022-11-02T18:55:27.593Z,13.37
2022-11-02T18:57:56.284Z,13.55
2022-11-02T19:00:24.087Z,13.58
2022-11-02T19:02:53.167Z,13.45
2022-11-02T19:05:34.829Z,13.39
2022-11-02T19:08:20.443Z,13.33
2022-11-02T19:10:48.615Z,13.33
2022-11-02T19:13:16.515Z,13.18
2022-11-02T19:15:44.292Z,13.02
2022-11-02T19:18:13.435Z,13.03
2022-11-02T19:20:41.160Z,13.13
2022-11-02T19:23:09.918Z,13.08
2022-11-02T19:25:38.017Z,13.02
2022-11-02T19:28:06.353Z,13.02
2022-11-02T19:30:34.261Z,13.09
2022-11-02T19:33:02.265Z,13.09
2022-11-02T19:35:31.372Z,12.96
2022-11-02T19:37:59.224Z,12.89
2022-11-02T19:40:26.995Z,12.94
2022-11-02T19:42:54.740Z,13.09
2022-11-02T19:45:22.475Z,12.94
2022-11-02T19:47:50.442Z,13.17
2022-11-02T19:50:18.374Z,13.16
2022-11-02T19:52:49.014Z,13.08
2022-11-02T19:55:17.309Z,13.11
2022-11-02T19:57:45.087Z,13.13
2022-11-02T20:00:15.039Z,13.15
2022-11-02T20:02:43.002Z,13.06
2022-11-02T20:05:12.628Z,13.21
2022-11-02T20:07:40.346Z,13.28
2022-11-02T20:10:10.347Z,13.33
2022-11-02T20:12:38.656Z,13.16
2022-11-02T20:15:07.941Z,13.15
2022-11-02T20:17:51.888Z,13.09
2022-11-02T20:20:23.418Z,13.09
2022-11-02T20:22:51.311Z,13.11
2022-11-02T20:25:20.435Z,13.38
2022-11-02T20:27:48.280Z,13.37
2022-11-02T20:30:16.196Z,13.26
2022-11-02T20:32:43.920Z,13.48
2022-11-02T20:35:13.779Z,13.48
2022-11-02T20:37:41.835Z,13.38
2022-11-02T20:40:10.740Z,13.43
2022-11-02T20:42:39.829Z,13.41
2022-11-02T20:45:08.763Z,13.32
2022-11-02T20:47:36.541Z,13.41
2022-11-02T20:50:04.620Z,13.26
2022-11-02T20:52:32.354Z,13.21
2022-11-02T20:55:00.095Z,13.10
2022-11-02T20:57:28.358Z,13.27
2022-11-02T20:59:57.454Z,13.25
2022-11-02T21:02:25.300Z,13.19
2022-11-02T21:04:53.188Z,13.10
2022-11-02T21:07:20.904Z,13.20
2022-11-02T21:09:48.763Z,13.34
2022-11-02T21:12:34.532Z,13.07
2022-11-02T21:15:03.653Z,13.04
2022-11-02T21:17:31.462Z,12.96
2022-11-02T21:20:14.227Z,13.04
2022-11-02T21:22:46.965Z,13.06
2022-11-02T21:25:14.699Z,13.07
2022-11-02T21:27:42.422Z,13.33
2022-11-02T21:30:12.652Z,13.33
2022-11-02T21:32:40.429Z,13.33
2022-11-02T21:35:09.070Z,13.38
2022-11-02T21:37:36.855Z,13.41
2022-11-02T21:40:05.022Z,13.60
2022-11-02T21:42:32.754Z,13.58
2022-11-02T21:45:00.567Z,13.41
2022-11-02T21:47:34.087Z,13.37
2022-11-02T21:50:02.297Z,13.23
2022-11-02T21:52:30.159Z,13.33
2022-11-02T21:54:57.948Z,13.26
2022-11-02T21:57:25.680Z,12.95
2022-11-02T21:59:53.452Z,12.85
2022-11-02T22:02:20.311Z,12.85
2022-11-02T22:04:53.425Z,12.85
2022-11-02T22:07:21.242Z,12.78
2022-11-02T22:09:49.007Z,12.87
2022-11-02T22:12:34.484Z,12.78
2022-11-02T22:15:02.209Z,12.78
2022-11-02T22:17:48.692Z,12.87
2022-11-02T22:20:18.569Z,12.90
2022-11-02T22:22:46.493Z,12.77
2022-11-02T22:25:14.255Z,12.86
2022-11-02T22:27:41.976Z,12.70
2022-11-02T22:30:10.551Z,12.82
2022-11-02T22:32:38.365Z,12.71
2022-11-02T22:35:06.827Z,12.67
2022-11-02T22:37:53.253Z,12.70
2022-11-02T22:40:21.024Z,12.72
2022-11-02T22:42:48.742Z,12.78
2022-11-02T22:45:16.698Z,12.90
2022-11-02T22:47:44.370Z,12.72
2022-11-02T22:50:12.183Z,12.67
2022-11-02T22:52:41.227Z,12.67
2022-11-02T22:55:10.399Z,12.63
2022-11-02T22:57:38.188Z,12.72
2022-11-02T23:00:06.966Z,12.68
2022-11-02T23:02:34.711Z,12.88
2022-11-02T23:05:02.468Z,12.72
2022-11-02T23:07:30.201Z,12.81
2022-11-02T23:09:59.304Z,12.69
2022-11-02T23:12:26.019Z,12.85
2022-11-02T23:14:53.746Z,12.83
2022-11-02T23:17:21.767Z,12.88
2022-11-02T23:19:48.499Z,12.93
2022-11-02T23:22:34.064Z,12.77
2022-11-02T23:25:14.962Z,12.96
2022-11-02T23:27:58.542Z,12.85
2022-11-02T23:30:45.899Z,12.86
2022-11-02T23:33:13.789Z,12.86
2022-11-02T23:35:58.855Z,12.78
2022-11-02T23:38:47.132Z,12.77
2022-11-02T23:41:16.434Z,12.81
2022-11-02T23:43:44.283Z,12.77
2022-11-02T23:46:12.153Z,12.94
2022-11-02T23:48:42.293Z,12.69
2022-11-02T23:51:28.003Z,12.62
2022-11-02T23:54:13.395Z,12.53
2022-11-02T23:56:45.427Z,12.81
2022-11-02T23:59:13.592Z,12.67
